Time;durP1;ratioP1;P1;durP2;ratioP2;P2;SDS_P1;SDS_P2;PMS_P1;PMS_P2;Temp;Humidity;BMP_temperature;BMP_pressure;BME280_temperature;BME280_humidity;BME280_pressure;Samples;Min_cycle;Max_cycle;Signal;HPM_P1;HPM_P2
2021/11/25 00:00:06;;;;;;;22.23;18.63;;;;;;;9.24;68.14;102270.72;2097369;28;20263;-67
2021/11/25 00:01:07;;;;;;;21.67;18.37;;;;;;;9.23;68.38;102274.63;2097370;28;20907;-67
2021/11/25 00:02:07;;;;;;;22.33;19.30;;;;;;;9.23;68.19;102279.41;2097363;28;20866;-67
2021/11/25 00:03:08;;;;;;;20.67;17.93;;;;;;;9.24;68.40;102279.00;2097309;28;20156;-67
2021/11/25 00:04:09;;;;;;;19.97;17.87;;;;;;;9.23;68.42;102277.41;2097122;28;20186;-67
2021/11/25 00:05:10;;;;;;;21.47;18.43;;;;;;;9.20;68.15;102266.31;2097363;28;20566;-67
2021/11/25 00:06:10;;;;;;;22.53;18.57;;;;;;;9.24;68.33;102269.91;2097040;28;20174;-67
2021/11/25 00:07:11;;;;;;;20.40;18.17;;;;;;;9.21;68.45;102274.25;2097054;28;20177;-67
2021/11/25 00:08:11;;;;;;;22.30;17.70;;;;;;;9.23;68.23;102291.22;2099897;28;20185;-67
2021/11/25 00:09:12;;;;;;;20.90;18.57;;;;;;;9.21;68.19;102274.25;2105327;28;20267;-67
2021/11/25 00:10:14;;;;;;;20.03;17.93;;;;;;;9.24;68.24;102267.94;2105795;28;20657;-67
2021/11/25 00:11:14;;;;;;;21.40;17.80;;;;;;;8.69;68.37;102193.59;2105070;28;20180;-67
2021/11/25 00:12:15;;;;;;;20.67;18.30;;;;;;;9.23;68.25;102271.09;2104706;28;20418;-67
2021/11/25 00:13:15;;;;;;;21.23;18.03;;;;;;;9.20;68.35;102261.59;2105515;28;20652;-67
2021/11/25 00:14:16;;;;;;;21.03;18.37;;;;;;;8.94;68.35;102222.25;2105458;28;20204;-67
2021/11/25 00:15:16;;;;;;;23.73;18.53;;;;;;;9.23;68.35;102269.09;2105680;28;20170;-67
2021/11/25 00:16:18;;;;;;;21.13;18.60;;;;;;;9.21;68.17;102268.69;2105367;28;20229;-67
2021/11/25 00:17:18;;;;;;;22.80;18.67;;;;;;;9.23;68.40;102280.16;2099997;28;20176;-67
2021/11/25 00:18:19;;;;;;;19.63;17.53;;;;;;;9.21;68.45;102293.59;2097196;28;20471;-67
2021/11/25 00:19:20;;;;;;;21.50;18.63;;;;;;;9.23;68.41;102271.09;2096709;28;20590;-67
2021/11/25 00:20:21;;;;;;;20.60;17.70;;;;;;;9.15;68.50;102261.94;2097126;28;20441;-67
2021/11/25 00:21:22;;;;;;;22.50;18.67;;;;;;;9.20;68.42;102283.72;2097266;28;20221;-67
2021/11/25 00:22:23;;;;;;;20.20;18.00;;;;;;;9.18;68.49;102272.22;2097158;28;20266;-67
2021/11/25 00:23:23;;;;;;;19.83;17.40;;;;;;;9.17;68.46;102276.16;2097331;28;20179;-67
2021/11/25 00:24:24;;;;;;;20.50;17.63;;;;;;;9.19;68.78;102271.06;2097123;28;20169;-67
2021/11/25 00:25:24;;;;;;;21.73;18.33;;;;;;;8.76;68.42;102201.97;2097294;28;20176;-67
2021/11/25 00:26:25;;;;;;;20.50;18.30;;;;;;;9.13;68.46;102269.81;2096880;28;20177;-67
2021/11/25 00:27:26;;;;;;;19.97;17.67;;;;;;;9.20;68.78;102280.16;2096658;28;20175;-67
2021/11/25 00:28:26;;;;;;;20.90;18.10;;;;;;;9.11;68.77;102252.00;2097186;28;20157;-67
2021/11/25 00:29:27;;;;;;;22.03;18.13;;;;;;;9.16;68.76;102273.78;2096862;28;20189;-67
2021/11/25 00:30:28;;;;;;;22.20;18.90;;;;;;;9.17;68.83;102270.63;2097347;28;20201;-67
2021/11/25 00:31:28;;;;;;;21.33;17.93;;;;;;;9.07;68.80;102248.44;2105600;28;20181;-67
2021/11/25 00:32:29;;;;;;;21.60;18.80;;;;;;;9.04;68.51;102240.91;2105539;28;20760;-67
2021/11/25 00:33:30;;;;;;;22.37;18.73;;;;;;;9.22;68.21;102264.75;2105469;28;20648;-67
2021/11/25 00:34:31;;;;;;;21.42;18.92;;;;;;;8.38;67.92;102130.56;2105536;28;20194;-67
2021/11/25 00:35:31;;;;;;;22.27;18.67;;;;;;;8.92;67.88;102239.22;2097708;28;20184;-67
2021/11/25 00:36:32;;;;;;;22.37;18.30;;;;;;;9.14;67.75;102273.38;2097089;28;20160;-67
2021/11/25 00:37:32;;;;;;;22.07;18.57;;;;;;;9.09;67.84;102257.16;2096015;28;20175;-67
2021/11/25 00:38:33;;;;;;;20.57;17.57;;;;;;;9.07;68.04;102260.28;2096629;28;20671;-67
2021/11/25 00:39:34;;;;;;;23.10;18.40;;;;;;;9.14;68.25;102265.09;2096947;28;20183;-67
2021/11/25 00:40:34;;;;;;;22.57;17.87;;;;;;;9.14;68.29;102256.78;2100945;28;20176;-67
2021/11/25 00:41:35;;;;;;;21.77;17.77;;;;;;;9.12;68.15;102254.41;2105300;28;20173;-67
2021/11/25 00:42:36;;;;;;;20.63;18.07;;;;;;;9.16;68.45;102259.94;2105558;28;20163;-67
2021/11/25 00:43:36;;;;;;;20.13;17.93;;;;;;;8.71;68.29;102191.28;2104700;28;20568;-67
2021/11/25 00:44:37;;;;;;;23.87;18.57;;;;;;;9.16;68.68;102266.28;2097129;28;20163;-67
2021/11/25 00:45:37;;;;;;;20.30;18.00;;;;;;;9.16;68.30;102263.53;2097030;28;20189;-67
2021/11/25 00:46:38;;;;;;;19.10;16.93;;;;;;;9.17;68.53;102261.56;2096647;28;20525;-67
2021/11/25 00:47:39;;;;;;;21.60;17.50;;;;;;;8.83;68.09;102224.94;2096766;28;20180;-67
2021/11/25 00:48:40;;;;;;;21.03;17.77;;;;;;;9.17;68.41;102262.34;2101663;28;20240;-67
2021/11/25 00:49:40;;;;;;;20.40;17.73;;;;;;;8.13;68.09;102096.38;2105213;28;20414;-67
2021/11/25 00:50:42;;;;;;;23.93;18.83;;;;;;;8.90;68.02;102227.75;2105038;28;20186;-67
2021/11/25 00:51:42;;;;;;;22.25;18.45;;;;;;;9.07;68.31;102254.75;2105282;28;20172;-67
2021/11/25 00:52:43;;;;;;;20.67;18.37;;;;;;;9.06;68.07;102264.22;2104000;28;20398;-67
2021/11/25 00:53:44;;;;;;;20.15;17.77;;;;;;;9.04;67.88;102255.53;2096957;28;20173;-67
2021/11/25 00:54:44;;;;;;;20.30;17.90;;;;;;;9.05;68.42;102259.06;2097016;28;20289;-67
2021/11/25 00:55:45;;;;;;;20.67;18.20;;;;;;;9.04;67.94;102255.53;2096954;28;20551;-67
2021/11/25 00:56:45;;;;;;;19.73;17.63;;;;;;;9.01;68.31;102259.06;2096502;28;20209;-67
2021/11/25 00:57:46;;;;;;;21.37;18.17;;;;;;;9.00;68.49;102254.72;2096717;28;20173;-67
2021/11/25 00:58:47;;;;;;;19.23;17.00;;;;;;;9.00;68.34;102256.66;2097146;28;20588;-67
2021/11/25 00:59:47;;;;;;;20.93;17.47;;;;;;;9.03;68.30;102258.69;2097038;28;20167;-67
2021/11/25 01:00:48;;;;;;;21.87;17.53;;;;;;;9.00;68.32;102249.19;2096808;28;20185;-67
2021/11/25 01:01:49;;;;;;;20.30;17.10;;;;;;;9.02;68.23;102246.81;2098860;28;20294;-67
2021/11/25 01:02:50;;;;;;;20.33;17.30;;;;;;;8.85;68.31;102216.25;2105371;28;20167;-67
2021/11/25 01:03:51;;;;;;;20.42;18.20;;;;;;;9.02;68.20;102252.34;2105164;28;20577;-67
2021/11/25 01:04:51;;;;;;;19.70;17.60;;;;;;;9.04;68.05;102246.44;2105262;28;20236;-67
2021/11/25 01:05:52;;;;;;;21.20;17.40;;;;;;;9.07;68.09;102248.44;2105238;28;20204;-67
2021/11/25 01:06:52;;;;;;;18.90;16.90;;;;;;;9.05;68.15;102239.72;2104126;28;20698;-67
2021/11/25 01:07:53;;;;;;;19.43;17.30;;;;;;;9.06;67.89;102241.31;2105187;28;20168;-67
2021/11/25 01:08:53;;;;;;;18.93;16.73;;;;;;;9.07;67.83;102251.22;2105411;28;20546;-67
2021/11/25 01:09:54;;;;;;;21.83;17.70;;;;;;;9.09;67.84;102246.06;2105330;28;20208;-67
2021/11/25 01:10:55;;;;;;;19.83;17.73;;;;;;;9.09;68.02;102252.41;2103913;28;20648;-67
2021/11/25 01:12:01;;;;;;;21.27;17.70;;;;;;;9.10;67.78;102247.66;2104670;28;20286;-67
2021/11/25 01:13:02;;;;;;;21.23;17.40;;;;;;;9.09;67.50;102246.06;2105322;28;20420;-67
2021/11/25 01:14:02;;;;;;;19.53;16.80;;;;;;;9.06;67.71;102246.84;2105371;28;20438;-67
2021/11/25 01:15:04;;;;;;;19.23;17.10;;;;;;;9.05;68.16;102245.25;2104662;28;20521;-67
2021/11/25 01:16:05;;;;;;;20.27;17.23;;;;;;;8.38;68.01;102144.38;2105247;28;20561;-67
2021/11/25 01:17:06;;;;;;;19.30;16.60;;;;;;;8.12;67.77;102098.34;2104560;28;20535;-67
2021/11/25 01:18:11;;;;;;;25.03;18.10;;;;;;;9.04;67.84;102243.66;2105145;28;20181;-67
2021/11/25 01:19:11;;;;;;;20.03;17.10;;;;;;;8.47;67.80;102150.38;2105348;28;20788;-67
2021/11/25 01:20:16;;;;;;;20.20;17.83;;;;;;;9.05;68.08;102237.75;2104606;28;20456;-67
2021/11/25 01:21:17;;;;;;;20.03;16.83;;;;;;;9.05;67.49;102235.00;2105457;28;20159;-67
2021/11/25 01:22:18;;;;;;;19.93;17.47;;;;;;;8.54;67.54;102164.25;2104609;28;20419;-67
2021/11/25 01:23:25;;;;;;;22.20;18.60;;;;;;;9.04;67.62;102235.38;2105311;28;20170;-67
2021/11/25 01:24:25;;;;;;;18.37;16.47;;;;;;;9.03;66.98;102234.56;2100603;28;20182;-67
2021/11/25 01:25:26;;;;;;;19.33;17.07;;;;;;;8.65;67.20;102176.19;2096982;28;20420;-67
2021/11/25 01:26:27;;;;;;;21.13;17.30;;;;;;;8.72;67.55;102198.38;2097148;28;20169;-67
2021/11/25 01:27:27;;;;;;;19.90;17.60;;;;;;;8.95;67.93;102230.16;2096098;28;20189;-67
2021/11/25 01:28:29;;;;;;;21.87;17.50;;;;;;;8.92;67.71;102230.16;2097317;28;20185;-67
2021/11/25 01:29:30;;;;;;;18.73;16.73;;;;;;;8.90;68.15;102224.19;2105215;28;20160;-67
2021/11/25 01:30:30;;;;;;;20.03;17.53;;;;;;;8.90;67.79;102224.19;2104414;28;20181;-67
2021/11/25 01:31:31;;;;;;;22.73;18.17;;;;;;;8.89;67.73;102222.59;2096882;28;20658;-67
2021/11/25 01:32:31;;;;;;;20.87;18.30;;;;;;;8.75;67.84;102230.75;2096370;28;20210;-67
2021/11/25 01:33:32;;;;;;;20.83;17.30;;;;;;;8.77;68.30;102231.19;2096763;28;20177;-67
2021/11/25 01:34:33;;;;;;;20.63;18.07;;;;;;;8.14;68.08;102128.31;2096889;28;20633;-67
2021/11/25 01:35:34;;;;;;;21.17;18.00;;;;;;;8.66;68.01;102213.72;2096840;28;20519;-67
2021/11/25 01:36:35;;;;;;;22.07;18.20;;;;;;;8.65;67.76;102214.88;2096061;28;20175;-67
2021/11/25 01:37:36;;;;;;;20.20;18.03;;;;;;;8.71;67.80;102221.66;2095623;28;20907;-67
2021/11/25 01:38:37;;;;;;;20.23;18.03;;;;;;;8.75;68.20;102231.56;2096832;28;20549;-67
2021/11/25 01:39:38;;;;;;;20.50;18.10;;;;;;;8.73;67.92;102230.38;2096734;28;20436;-67
2021/11/25 01:40:40;;;;;;;22.50;18.37;;;;;;;8.56;68.25;102223.50;2101890;28;20423;-67
2021/11/25 01:41:41;;;;;;;22.47;18.00;;;;;;;8.55;68.36;102223.84;2105101;28;20171;-67
2021/11/25 01:42:42;;;;;;;21.23;18.50;;;;;;;8.58;68.67;102226.69;2104408;28;20416;-67
2021/11/25 01:43:44;;;;;;;22.20;18.53;;;;;;;8.57;68.44;102218.78;2104732;28;20401;-67
2021/11/25 01:44:44;;;;;;;21.20;18.53;;;;;;;8.58;68.65;102226.69;2105263;28;20447;-67
2021/11/25 01:45:45;;;;;;;23.20;18.30;;;;;;;8.61;68.48;102225.13;2105102;28;20682;-67
2021/11/25 01:46:46;;;;;;;19.70;17.60;;;;;;;8.65;68.81;102220.41;2104239;28;20182;-67
2021/11/25 01:47:47;;;;;;;19.70;17.50;;;;;;;7.96;68.71;102122.66;2104669;28;20632;-67
2021/11/25 01:48:49;;;;;;;20.73;17.43;;;;;;;8.59;68.66;102225.50;2105240;28;20812;-67
2021/11/25 01:49:50;;;;;;;19.23;17.13;;;;;;;8.61;68.55;102233.41;2105066;28;20588;-67
2021/11/25 01:50:51;;;;;;;20.07;17.83;;;;;;;8.64;68.99;102224.34;2104137;28;20423;-67
2021/11/25 01:51:52;;;;;;;22.03;17.30;;;;;;;8.64;68.82;102225.16;2096698;28;20163;-67
2021/11/25 01:52:53;;;;;;;20.53;17.87;;;;;;;8.64;68.89;102225.16;2096840;28;20420;-67
2021/11/25 01:53:54;;;;;;;19.50;17.37;;;;;;;8.63;69.03;102222.78;2096127;28;20172;-67
2021/11/25 01:54:54;;;;;;;20.77;17.70;;;;;;;8.66;69.14;102224.78;2096822;28;20248;-67
2021/11/25 01:55:55;;;;;;;21.27;17.77;;;;;;;8.65;68.46;102228.69;2096780;28;20690;-67
2021/11/25 01:56:56;;;;;;;19.67;17.57;;;;;;;8.62;68.39;102221.19;2096383;28;20676;-67
2021/11/25 01:57:57;;;;;;;20.80;17.37;;;;;;;8.57;68.68;102225.06;2096581;28;20165;-67
2021/11/25 01:58:58;;;;;;;19.70;17.60;;;;;;;8.59;68.60;102219.97;2096694;28;20523;-67
2021/11/25 01:59:58;;;;;;;18.33;16.37;;;;;;;8.63;68.74;102225.53;2098612;28;20178;-67
2021/11/25 02:01:01;;;;;;;21.27;18.20;;;;;;;8.65;68.76;102218.44;2105097;28;20171;-67
2021/11/25 02:02:06;;;;;;;20.53;17.40;;;;;;;8.66;68.51;102213.72;2105968;28;20159;-67
2021/11/25 02:03:07;;;;;;;19.27;16.47;;;;;;;8.70;68.64;102220.06;2106629;28;20410;-67
2021/11/25 02:04:09;;;;;;;20.10;17.23;;;;;;;7.98;68.63;102109.25;2105726;28;20423;-67
2021/11/25 02:05:09;;;;;;;19.40;17.13;;;;;;;8.70;68.93;102229.16;2106059;28;20440;-67
2021/11/25 02:06:10;;;;;;;21.53;17.13;;;;;;;8.69;68.64;102216.53;2106585;28;20411;-67
2021/11/25 02:07:11;;;;;;;20.77;18.27;;;;;;;8.64;68.46;102207.78;2106134;28;20185;-67
2021/11/25 02:08:11;;;;;;;18.80;16.80;;;;;;;8.67;68.83;102218.06;2106219;28;20231;-67
2021/11/25 02:09:12;;;;;;;19.93;17.83;;;;;;;8.69;68.36;102210.19;2105933;28;20190;-67
2021/11/25 02:10:13;;;;;;;19.77;17.60;;;;;;;8.69;68.67;102213.75;2106614;28;20232;-67
2021/11/25 02:11:14;;;;;;;19.33;17.27;;;;;;;8.70;68.64;102217.28;2106682;28;20165;-67
2021/11/25 02:12:14;;;;;;;19.37;17.07;;;;;;;8.71;68.63;102216.16;2106663;28;20185;-67
2021/11/25 02:13:15;;;;;;;21.40;17.83;;;;;;;8.67;68.11;102216.09;2105930;28;20157;-67
2021/11/25 02:14:16;;;;;;;23.43;17.90;;;;;;;7.87;68.20;102082.69;2106266;28;20174;-67
2021/11/25 02:15:17;;;;;;;18.80;16.80;;;;;;;8.67;67.96;102207.03;2106392;28;20207;-67
2021/11/25 02:16:17;;;;;;;19.53;16.87;;;;;;;8.07;67.87;102123.53;2106587;28;20174;-67
2021/11/25 02:17:19;;;;;;;19.03;17.00;;;;;;;8.54;68.32;102206.50;2106081;28;20179;-67
2021/11/25 02:18:22;;;;;;;19.30;17.10;;;;;;;8.52;68.35;102213.59;2105694;28;20178;-67
2021/11/25 02:19:24;;;;;;;19.60;16.80;;;;;;;7.96;68.53;102138.41;2106479;28;20395;-67
2021/11/25 02:20:30;;;;;;;20.93;17.97;;;;;;;8.54;68.29;102211.22;2106493;28;20418;-67
2021/11/25 02:21:31;;;;;;;19.13;17.07;;;;;;;8.53;68.64;102210.44;2106454;28;20842;-67
2021/11/25 02:22:32;;;;;;;20.73;16.87;;;;;;;8.57;68.60;102204.94;2105794;28;20565;-67
2021/11/25 02:23:33;;;;;;;21.40;18.00;;;;;;;8.59;68.65;102210.88;2106502;28;20280;-67
2021/11/25 02:24:34;;;;;;;20.17;17.77;;;;;;;8.60;68.56;102210.50;2106643;28;20412;-67
2021/11/25 02:25:34;;;;;;;21.70;17.83;;;;;;;7.80;68.16;102080.66;2105785;28;20411;-67
2021/11/25 02:26:35;;;;;;;20.17;17.47;;;;;;;8.57;68.43;102211.25;2105845;28;20201;-67
2021/11/25 02:27:37;;;;;;;21.47;17.40;;;;;;;8.58;68.22;102201.00;2097685;28;20209;-67
2021/11/25 02:28:39;;;;;;;19.97;17.87;;;;;;;8.62;68.71;102205.38;2097900;28;20441;-67
2021/11/25 02:29:40;;;;;;;19.67;16.27;;;;;;;7.84;68.28;102100.03;2098024;28;20414;-67
2021/11/25 02:30:41;;;;;;;19.20;17.20;;;;;;;8.45;68.24;102205.25;2100283;28;20413;-67
2021/11/25 02:31:41;;;;;;;20.73;16.93;;;;;;;8.43;68.52;102204.81;2100640;28;20417;-67
2021/11/25 02:32:47;;;;;;;19.83;16.73;;;;;;;8.42;68.26;102203.22;2098127;28;20249;-67
2021/11/25 02:33:48;;;;;;;19.57;16.90;;;;;;;8.45;68.71;102216.28;2097768;28;20650;-67
2021/11/25 02:34:48;;;;;;;20.43;17.63;;;;;;;8.47;68.63;102209.22;2098019;28;20514;-67
2021/11/25 02:35:49;;;;;;;19.77;16.83;;;;;;;8.37;69.19;102184.22;2097315;28;20778;-67
2021/11/25 02:36:49;;;;;;;20.00;17.10;;;;;;;8.50;69.01;102207.66;2101992;28;20187;-67
2021/11/25 02:37:52;;;;;;;19.57;17.30;;;;;;;8.51;68.75;102209.25;2105497;28;20467;-67
2021/11/25 02:38:53;;;;;;;19.67;17.57;;;;;;;8.48;69.16;102207.22;2106217;28;20311;-67
2021/11/25 02:39:53;;;;;;;20.57;17.73;;;;;;;8.51;69.14;102209.25;2106229;28;20416;-67
2021/11/25 02:40:57;;;;;;;20.60;17.17;;;;;;;8.52;68.96;102217.16;2105030;28;20424;-67
2021/11/25 02:41:57;;;;;;;20.37;17.57;;;;;;;8.52;68.85;102208.06;2105701;28;20777;-67
2021/11/25 02:43:18;;;;;;;18.67;16.27;;;;;;;8.51;68.82;102212.00;2106338;28;20429;-67
2021/11/25 02:44:19;;;;;;;19.83;16.67;;;;;;;8.50;68.64;102196.59;2106255;28;20195;-67
2021/11/25 02:45:21;;;;;;;20.03;16.77;;;;;;;7.73;68.48;102074.25;2105696;28;20418;-67
2021/11/25 02:46:22;;;;;;;18.23;16.20;;;;;;;8.57;68.41;102207.72;2105488;28;20201;-67
2021/11/25 02:47:26;;;;;;;19.37;17.23;;;;;;;8.50;68.72;102193.84;2105843;28;20440;-67
2021/11/25 02:48:49;;;;;;;19.47;16.87;;;;;;;8.56;68.21;102206.13;2106032;28;20700;-67
2021/11/25 02:49:49;;;;;;;18.90;15.97;;;;;;;8.55;67.98;102199.81;2098633;28;20441;-67
2021/11/25 02:50:52;;;;;;;18.57;16.37;;;;;;;8.48;67.76;102199.75;2097855;28;20457;-67
2021/11/25 02:51:53;;;;;;;19.13;16.83;;;;;;;8.47;68.36;102202.88;2097901;28;20229;-67
2021/11/25 02:52:53;;;;;;;20.80;17.10;;;;;;;8.44;68.03;102196.16;2097862;28;21059;-67
2021/11/25 02:53:55;;;;;;;20.53;17.40;;;;;;;8.45;68.42;102194.97;2097916;28;20166;-67
2021/11/25 02:54:55;;;;;;;19.00;16.93;;;;;;;8.48;68.50;102194.22;2097741;28;20191;-67
2021/11/25 02:56:09;;;;;;;18.63;16.43;;;;;;;8.45;68.47;102192.19;2097872;28;20410;-67
2021/11/25 02:57:10;;;;;;;20.50;17.40;;;;;;;8.41;68.45;102188.59;2097157;28;20166;-67
2021/11/25 02:58:10;;;;;;;18.73;16.03;;;;;;;8.33;68.52;102173.16;2099503;28;20932;-67
2021/11/25 02:59:11;;;;;;;19.37;16.63;;;;;;;8.44;68.21;102189.81;2106008;28;20204;-67
2021/11/25 03:00:21;;;;;;;19.10;17.10;;;;;;;8.47;68.52;102198.16;2106231;28;20179;-67
2021/11/25 03:01:23;;;;;;;19.10;16.70;;;;;;;8.45;68.72;102189.44;2106169;28;20174;-67
2021/11/25 03:02:23;;;;;;;19.40;16.27;;;;;;;8.44;68.72;102196.16;2105881;28;20425;-67
2021/11/25 03:03:24;;;;;;;20.70;17.53;;;;;;;8.39;68.53;102184.63;2097738;28;20456;-67
2021/11/25 03:04:25;;;;;;;19.10;17.03;;;;;;;8.44;68.49;102198.91;2102175;28;20209;-67
2021/11/25 03:05:25;;;;;;;18.50;16.43;;;;;;;8.33;68.93;102188.91;2106176;28;20186;-67
2021/11/25 03:06:26;;;;;;;19.23;17.00;;;;;;;7.25;68.52;102029.22;2106201;28;20577;-67
2021/11/25 03:07:26;;;;;;;19.23;17.20;;;;;;;8.28;68.60;102198.34;2100061;28;20183;-67
2021/11/25 03:08:27;;;;;;;21.10;16.83;;;;;;;8.31;68.22;102191.28;2097799;28;20178;-67
2021/11/25 03:09:27;;;;;;;20.57;17.10;;;;;;;8.28;68.04;102192.84;2097808;28;20174;-67
2021/11/25 03:10:34;;;;;;;19.33;17.03;;;;;;;8.28;68.00;102192.84;2097647;28;20186;-67
2021/11/25 03:11:35;;;;;;;20.17;16.37;;;;;;;8.31;68.02;102189.28;2097671;28;20629;-67
2021/11/25 03:12:36;;;;;;;21.13;17.30;;;;;;;7.22;68.63;102013.41;2097821;28;20409;-67
2021/11/25 03:13:40;;;;;;;21.07;16.97;;;;;;;8.40;68.29;102186.25;2097609;28;20408;-67
2021/11/25 03:14:40;;;;;;;21.03;16.77;;;;;;;7.95;68.45;102112.75;2097751;28;20687;-67
2021/11/25 03:15:42;;;;;;;20.43;17.40;;;;;;;8.39;68.23;102195.69;2097641;28;20803;-67
2021/11/25 03:16:43;;;;;;;19.57;17.00;;;;;;;8.36;68.49;102179.88;2097330;28;20211;-67
2021/11/25 03:17:43;;;;;;;20.07;16.93;;;;;;;8.37;67.99;102209.09;2096749;28;20404;-67
2021/11/25 03:18:44;;;;;;;20.47;17.00;;;;;;;8.36;67.72;102190.94;2097752;28;20171;-67
2021/11/25 03:19:44;;;;;;;20.17;17.40;;;;;;;8.30;67.73;102186.94;2097377;28;20168;-66
2021/11/25 03:20:48;;;;;;;20.97;17.37;;;;;;;8.21;67.90;102180.91;2100510;28;20618;-67
2021/11/25 03:21:49;;;;;;;18.73;16.60;;;;;;;8.27;67.74;102182.97;2105469;28;20663;-67
2021/11/25 03:22:49;;;;;;;18.27;16.27;;;;;;;8.29;68.00;102183.38;2106081;28;20411;-67
2021/11/25 03:23:52;;;;;;;19.60;16.97;;;;;;;8.28;67.84;102181.78;2105935;28;20282;-67
2021/11/25 03:24:55;;;;;;;20.67;16.97;;;;;;;7.14;67.88;102000.72;2104840;28;20228;-66
2021/11/25 03:25:57;;;;;;;19.33;16.53;;;;;;;8.16;67.78;102159.91;2097543;28;20395;-67
2021/11/25 03:26:58;;;;;;;19.17;17.03;;;;;;;8.27;67.95;102176.63;2097303;28;20930;-67
2021/11/25 03:27:58;;;;;;;19.53;16.77;;;;;;;8.28;68.14;102184.53;2096764;28;20421;-67
2021/11/25 03:29:02;;;;;;;19.00;16.43;;;;;;;8.33;68.34;102184.19;2097463;28;20701;-67
2021/11/25 03:30:04;;;;;;;19.00;15.87;;;;;;;8.35;67.91;102183.81;2097536;28;20181;-67
2021/11/25 03:31:05;;;;;;;18.13;15.60;;;;;;;8.34;68.20;102191.31;2103082;28;21014;-67
2021/11/25 03:32:05;;;;;;;18.43;16.03;;;;;;;8.36;67.90;102182.66;2106159;28;20896;-67
2021/11/25 03:33:08;;;;;;;20.60;16.77;;;;;;;8.37;68.03;102176.75;2106016;28;20257;-67
2021/11/25 03:34:08;;;;;;;21.70;17.13;;;;;;;8.36;68.28;102177.91;2105200;28;20179;-67
2021/11/25 03:35:10;;;;;;;19.37;16.70;;;;;;;8.34;67.78;102184.97;2105828;28;20459;-67
2021/11/25 03:36:11;;;;;;;20.07;16.83;;;;;;;8.36;67.73;102182.66;2105268;28;20627;-67
2021/11/25 03:37:11;;;;;;;19.13;16.60;;;;;;;8.28;67.95;102167.97;2104894;28;20416;-67
2021/11/25 03:38:12;;;;;;;20.37;15.90;;;;;;;8.33;67.60;102170.38;2105319;28;20405;-67
2021/11/25 03:39:12;;;;;;;18.33;16.40;;;;;;;8.33;67.36;102173.16;2104639;28;20182;-67
2021/11/25 03:40:13;;;;;;;19.43;16.23;;;;;;;8.32;68.03;102171.56;2104428;28;20172;-67
2021/11/25 03:41:14;;;;;;;19.13;16.43;;;;;;;8.37;67.38;102174.00;2097717;28;20179;-67
2021/11/25 03:42:15;;;;;;;17.97;15.77;;;;;;;8.18;67.12;102149.28;2097469;28;20234;-66
2021/11/25 03:43:16;;;;;;;20.37;16.30;;;;;;;7.66;66.69;102072.25;2097373;28;20428;-67
2021/11/25 03:44:16;;;;;;;18.30;16.20;;;;;;;8.20;67.23;102168.28;2097454;28;20185;-67
2021/11/25 03:45:17;;;;;;;20.07;15.80;;;;;;;8.23;67.59;102173.03;2097460;28;20182;-67
2021/11/25 03:46:18;;;;;;;18.77;16.03;;;;;;;7.54;67.05;102055.94;2097414;28;20187;-67
2021/11/25 03:47:18;;;;;;;20.63;17.30;;;;;;;8.23;67.49;102168.31;2096877;28;20177;-67
2021/11/25 03:48:23;;;;;;;20.43;16.23;;;;;;;8.18;67.60;102152.06;2097430;28;20205;-67
2021/11/25 03:49:23;;;;;;;18.23;15.70;;;;;;;8.26;67.73;102164.78;2096539;28;20548;-67
2021/11/25 03:50:24;;;;;;;18.50;16.27;;;;;;;8.26;67.86;102158.47;2097302;28;20464;-67
2021/11/25 03:51:25;;;;;;;17.23;15.33;;;;;;;7.50;67.82;102038.56;2097347;28;20216;-67
2021/11/25 03:52:25;;;;;;;17.83;15.80;;;;;;;8.28;68.15;102158.88;2103547;28;20180;-67
2021/11/25 03:53:27;;;;;;;18.70;15.80;;;;;;;8.30;67.13;102157.31;2105795;28;20162;-67
2021/11/25 03:54:28;;;;;;;18.33;16.03;;;;;;;8.25;67.36;102148.59;2105650;28;20171;-67
2021/11/25 03:55:29;;;;;;;21.70;16.13;;;;;;;7.91;67.33;102103.66;2105849;28;20495;-67
2021/11/25 03:56:29;;;;;;;20.13;15.50;;;;;;;8.22;66.78;102157.63;2102677;28;20605;-67
2021/11/25 03:57:30;;;;;;;19.23;16.00;;;;;;;8.22;67.40;102154.88;2096780;28;20556;-67
2021/11/25 03:58:31;;;;;;;18.93;15.83;;;;;;;8.22;67.21;102165.94;2097334;28;20224;-67
2021/11/25 03:59:31;;;;;;;18.73;16.50;;;;;;;8.24;67.46;102152.53;2096531;28;20181;-67
2021/11/25 04:00:33;;;;;;;18.20;16.30;;;;;;;8.25;67.59;102159.66;2097334;28;20451;-67
2021/11/25 04:01:33;;;;;;;19.05;16.23;;;;;;;8.21;67.31;102153.28;2097161;28;20261;-67
2021/11/25 04:02:34;;;;;;;19.80;16.40;;;;;;;8.25;67.72;102160.44;2097510;28;20184;-67
2021/11/25 04:03:35;;;;;;;19.37;15.97;;;;;;;7.68;67.04;102064.38;2097227;28;20167;-67
2021/11/25 04:04:36;;;;;;;18.90;16.37;;;;;;;8.28;67.37;102156.94;2097095;28;20583;-67
2021/11/25 04:05:36;;;;;;;18.13;16.20;;;;;;;8.33;67.31;102155.78;2096480;28;20429;-67
2021/11/25 04:06:37;;;;;;;18.03;16.03;;;;;;;8.34;67.82;102163.69;2096538;28;20174;-67
2021/11/25 04:07:38;;;;;;;17.93;15.87;;;;;;;8.36;67.27;102157.78;2096932;28;20674;-67
2021/11/25 04:08:38;;;;;;;18.17;16.00;;;;;;;8.36;67.03;102157.78;2097471;28;20228;-67
2021/11/25 04:09:39;;;;;;;17.47;15.37;;;;;;;7.69;66.90;102062.41;2097303;28;20257;-67
2021/11/25 04:10:40;;;;;;;18.03;15.17;;;;;;;8.39;67.26;102152.28;2105062;28;20278;-67
2021/11/25 04:11:41;;;;;;;18.53;16.00;;;;;;;8.39;67.22;102151.47;2105618;28;20205;-67
2021/11/25 04:12:42;;;;;;;18.67;16.40;;;;;;;8.38;67.12;102158.19;2105641;28;20413;-67
2021/11/25 04:13:42;;;;;;;18.30;15.80;;;;;;;7.94;66.98;102085.56;2105580;28;20170;-67
2021/11/25 04:14:43;;;;;;;19.77;16.67;;;;;;;8.37;66.68;102157.41;2104667;28;20494;-67
2021/11/25 04:15:44;;;;;;;17.80;15.30;;;;;;;8.37;67.17;102157.41;2105609;28;20175;-67
2021/11/25 04:16:44;;;;;;;18.53;16.53;;;;;;;8.39;67.34;102160.56;2105329;28;20208;-67
2021/11/25 04:17:45;;;;;;;19.87;16.00;;;;;;;8.41;66.78;102160.19;2103873;28;20702;-67
2021/11/25 04:18:45;;;;;;;18.63;15.70;;;;;;;8.42;66.61;102150.72;2102547;28;20180;-67
2021/11/25 04:19:46;;;;;;;18.10;15.80;;;;;;;8.36;66.95;102158.56;2097071;28;20182;-67
2021/11/25 04:20:47;;;;;;;17.37;15.50;;;;;;;8.29;66.90;102149.41;2096484;28;20243;-67
2021/11/25 04:21:47;;;;;;;19.33;16.47;;;;;;;8.30;66.83;102148.25;2097213;28;20534;-67
2021/11/25 04:22:48;;;;;;;20.33;16.33;;;;;;;8.32;66.73;102152.22;2097169;28;20175;-67
2021/11/25 04:23:48;;;;;;;20.00;16.80;;;;;;;8.31;67.12;102152.59;2097139;28;20702;-67
2021/11/25 04:24:53;;;;;;;19.87;16.33;;;;;;;8.31;67.35;102153.38;2096799;28;20169;-67
2021/11/25 04:25:54;;;;;;;19.20;15.60;;;;;;;8.34;67.16;102155.41;2097105;28;20221;-67
2021/11/25 04:26:54;;;;;;;20.70;16.50;;;;;;;8.17;67.24;102116.53;2096808;28;20429;-67
2021/11/25 04:27:55;;;;;;;18.87;16.53;;;;;;;8.34;67.04;102155.41;2100291;28;20181;-67
2021/11/25 04:28:55;;;;;;;21.37;17.20;;;;;;;7.24;67.12;101990.97;2105453;28;20161;-67
2021/11/25 04:30:10;;;;;;;21.23;16.77;;;;;;;8.28;67.03;102156.13;2105429;28;20646;-67
2021/11/25 04:36:28;;;;;;;18.70;15.50;;;;;;;8.09;66.95;102135.00;2104846;28;20897;-67
2021/11/25 04:37:28;;;;;;;19.83;16.10;;;;;;;8.16;67.53;102151.63;2104891;28;20597;-67
2021/11/25 04:38:29;;;;;;;18.93;15.90;;;;;;;8.21;67.66;102153.28;2105475;28;20213;-67
2021/11/25 04:39:30;;;;;;;18.40;16.30;;;;;;;8.25;67.29;102145.84;2105350;28;20173;-67
2021/11/25 04:40:35;;;;;;;22.23;16.20;;;;;;;8.22;67.00;102144.63;2101372;28;20180;-67
2021/11/25 04:41:36;;;;;;;17.53;15.07;;;;;;;8.14;67.15;102142.94;2096427;28;20970;-67
2021/11/25 04:42:36;;;;;;;18.77;15.93;;;;;;;7.99;67.35;102143.97;2097199;28;20890;-67
2021/11/25 04:43:37;;;;;;;16.93;15.07;;;;;;;8.03;67.35;102144.00;2096975;28;20254;-66
2021/11/25 04:44:37;;;;;;;18.97;16.30;;;;;;;7.56;66.83;102075.69;2097185;28;20254;-67
2021/11/25 04:45:41;;;;;;;20.10;15.83;;;;;;;8.03;66.70;102144.00;2098743;28;20161;-67
2021/11/25 04:46:42;;;;;;;18.23;15.53;;;;;;;8.05;67.05;102138.91;2105143;28;20176;-67